Time;durP1;ratioP1;P1;durP2;ratioP2;P2;SDS_P1;SDS_P2;PMS_P1;PMS_P2;Temp;Humidity;BMP_temperature;BMP_pressure;BME280_temperature;BME280_humidity;BME280_pressure;Samples;Min_cycle;Max_cycle;Signal;HPM_P1;HPM_P2
2023/05/20 00:00:27;;;;;;;2.10;1.00;;;15.80;51.00;;;;;;5014839;28;20205;-74
2023/05/20 00:02:52;;;;;;;2.67;1.00;;;15.80;50.80;;;;;;4996531;28;20205;-75
2023/05/20 00:05:18;;;;;;;2.73;1.07;;;15.80;50.90;;;;;;4997520;28;20954;-74
2023/05/20 00:07:44;;;;;;;1.70;0.93;;;15.80;51.10;;;;;;4997107;28;20174;-75
2023/05/20 00:10:10;;;;;;;2.57;1.00;;;15.70;51.00;;;;;;5014875;28;20216;-75
2023/05/20 00:12:37;;;;;;;3.03;1.00;;;15.70;51.10;;;;;;5013968;28;20636;-75
2023/05/20 00:15:04;;;;;;;2.08;1.08;;;15.70;51.30;;;;;;5013493;28;20600;-75
2023/05/20 00:17:30;;;;;;;2.00;0.95;;;15.60;51.40;;;;;;4996660;28;20807;-75
2023/05/20 00:19:55;;;;;;;1.90;1.00;;;15.60;51.50;;;;;;4997153;28;20224;-75
2023/05/20 00:22:21;;;;;;;1.97;1.00;;;15.60;51.50;;;;;;4996770;28;20727;-75
2023/05/20 00:24:47;;;;;;;2.57;1.00;;;15.60;51.60;;;;;;4996271;28;20178;-75
2023/05/20 00:27:13;;;;;;;1.97;1.00;;;15.50;51.60;;;;;;4996865;28;20658;-74
2023/05/20 00:29:38;;;;;;;3.00;0.90;;;15.50;51.70;;;;;;5013465;28;20208;-75
2023/05/20 00:32:04;;;;;;;2.10;1.20;;;15.50;51.90;;;;;;4996246;28;20296;-75
2023/05/20 00:34:30;;;;;;;2.20;1.03;;;15.40;51.90;;;;;;4980007;28;20177;-75
2023/05/20 00:36:56;;;;;;;1.70;0.80;;;15.40;51.90;;;;;;4996778;28;20940;-74
2023/05/20 00:39:21;;;;;;;2.00;1.00;;;15.40;52.10;;;;;;5014072;28;20183;-75
2023/05/20 00:41:47;;;;;;;1.70;0.90;;;15.40;52.20;;;;;;4996180;28;20268;-75
2023/05/20 00:44:13;;;;;;;5.23;0.80;;;15.30;52.20;;;;;;4996264;28;20641;-74
2023/05/20 00:46:38;;;;;;;3.40;0.97;;;15.30;52.30;;;;;;4996601;28;20182;-74
2023/05/20 00:49:05;;;;;;;3.87;0.83;;;15.30;52.40;;;;;;4996485;28;20171;-74
2023/05/20 00:51:31;;;;;;;2.08;1.00;;;15.30;52.50;;;;;;4995834;28;20562;-74
2023/05/20 00:53:57;;;;;;;2.30;0.80;;;15.30;52.60;;;;;;4995791;28;20261;-74
2023/05/20 00:56:24;;;;;;;3.75;1.08;;;15.20;52.60;;;;;;4995957;28;20712;-75
2023/05/20 00:58:50;;;;;;;1.40;0.82;;;15.20;52.70;;;;;;4996348;28;20174;-74
2023/05/20 01:01:15;;;;;;;1.50;0.70;;;15.20;52.80;;;;;;4995242;28;20190;-74
2023/05/20 01:03:41;;;;;;;2.00;0.90;;;15.10;52.90;;;;;;4995464;28;20682;-74
2023/05/20 01:06:07;;;;;;;1.90;0.80;;;15.10;53.00;;;;;;4971156;28;20186;-75
2023/05/20 01:08:33;;;;;;;2.93;1.00;;;15.10;53.60;;;;;;4996693;28;20574;-74
2023/05/20 01:11:06;;;;;;;2.20;0.90;;;15.00;53.10;;;;;;4979064;28;20193;-74
2023/05/20 01:13:38;;;;;;;1.67;0.90;;;15.00;53.40;;;;;;4995531;28;20581;-74
2023/05/20 01:16:07;;;;;;;1.55;0.80;;;15.00;53.50;;;;;;5004288;28;20265;-74
2023/05/20 01:18:33;;;;;;;2.10;0.80;;;15.00;53.40;;;;;;4992748;28;20547;-75
2023/05/20 01:21:01;;;;;;;3.47;0.90;;;14.90;53.40;;;;;;4976514;28;20199;-75
2023/05/20 01:23:41;;;;;;;2.40;0.80;;;14.90;53.60;;;;;;4980373;28;20565;-75
2023/05/20 01:26:12;;;;;;;3.00;1.40;;;14.90;53.90;;;;;;4996080;28;20177;-75
2023/05/20 01:28:38;;;;;;;2.03;1.00;;;14.90;53.80;;;;;;4979417;28;20181;-75
2023/05/20 01:31:09;;;;;;;1.92;0.90;;;14.80;53.80;;;;;;4995485;28;20194;-75
2023/05/20 01:33:40;;;;;;;2.30;1.30;;;14.80;54.00;;;;;;4977213;28;20179;-76
2023/05/20 01:36:07;;;;;;;1.70;0.90;;;14.80;54.20;;;;;;4992598;28;20204;-75
2023/05/20 01:38:35;;;;;;;2.72;1.00;;;14.70;54.20;;;;;;4976020;28;20182;-76
2023/05/20 01:41:03;;;;;;;2.30;0.90;;;14.70;54.40;;;;;;5008218;28;20226;-76
2023/05/20 01:43:30;;;;;;;2.45;0.98;;;14.60;54.50;;;;;;5008357;28;20205;-76
2023/05/20 01:45:55;;;;;;;3.05;0.80;;;14.60;54.50;;;;;;4992265;28;20533;-76
2023/05/20 01:48:21;;;;;;;1.70;1.00;;;14.60;54.70;;;;;;4959427;28;20189;-75
2023/05/20 01:50:47;;;;;;;1.70;1.03;;;14.60;54.80;;;;;;4976732;28;20743;-75
2023/05/20 01:53:13;;;;;;;4.10;0.90;;;14.50;54.90;;;;;;4992869;28;20233;-76
2023/05/20 01:55:38;;;;;;;1.67;1.00;;;14.50;55.00;;;;;;4993490;28;20185;-75
2023/05/20 01:58:04;;;;;;;1.90;1.10;;;14.50;55.20;;;;;;4976009;28;20183;-75
2023/05/20 02:00:33;;;;;;;2.15;1.00;;;14.40;55.30;;;;;;4959388;28;20602;-75
2023/05/20 02:02:58;;;;;;;2.83;1.50;;;14.40;55.60;;;;;;4975330;28;20179;-75
2023/05/20 02:05:24;;;;;;;2.33;1.10;;;14.40;55.60;;;;;;4974756;28;20529;-75
2023/05/20 02:07:50;;;;;;;2.23;1.00;;;14.40;55.80;;;;;;5008238;28;20266;-76
2023/05/20 02:10:15;;;;;;;3.13;1.37;;;14.30;56.00;;;;;;4975211;28;20673;-76
2023/05/20 02:12:41;;;;;;;2.93;0.93;;;14.30;56.00;;;;;;4967912;28;20237;-75
2023/05/20 02:15:08;;;;;;;2.92;1.40;;;14.30;56.10;;;;;;4994477;28;20190;-76
2023/05/20 02:17:34;;;;;;;1.90;0.93;;;14.20;56.30;;;;;;4994832;28;20233;-75
2023/05/20 02:20:00;;;;;;;2.40;1.00;;;14.20;56.30;;;;;;4994583;28;20178;-75
2023/05/20 02:22:26;;;;;;;3.38;1.25;;;14.20;56.60;;;;;;5011952;28;20194;-76
2023/05/20 02:24:52;;;;;;;2.00;1.00;;;14.20;56.80;;;;;;4993992;28;20701;-76
2023/05/20 02:27:18;;;;;;;2.20;0.90;;;14.10;57.30;;;;;;4978427;28;20658;-76
2023/05/20 02:29:43;;;;;;;2.37;1.00;;;14.10;57.10;;;;;;5012369;28;20174;-75
2023/05/20 02:32:11;;;;;;;1.75;1.00;;;14.10;57.30;;;;;;4993880;28;20205;-75
2023/05/20 02:34:37;;;;;;;2.20;1.15;;;14.00;57.50;;;;;;4978348;28;20201;-75
2023/05/20 02:37:02;;;;;;;4.87;1.20;;;14.00;57.80;;;;;;4994015;28;20685;-76
2023/05/20 02:39:28;;;;;;;1.92;0.93;;;13.90;57.90;;;;;;4994538;28;20174;-75
2023/05/20 02:41:55;;;;;;;2.87;1.17;;;13.90;58.70;;;;;;4977108;28;20221;-75
2023/05/20 02:44:20;;;;;;;2.60;1.20;;;13.90;58.60;;;;;;4994451;28;20174;-76
2023/05/20 02:46:47;;;;;;;2.10;1.48;;;13.80;58.70;;;;;;4993998;28;20213;-76
2023/05/20 02:49:12;;;;;;;2.60;1.13;;;13.80;59.10;;;;;;4994416;28;20198;-76
2023/05/20 02:51:39;;;;;;;3.90;1.30;;;13.80;59.30;;;;;;5010997;28;20210;-76
2023/05/20 02:54:06;;;;;;;1.75;0.90;;;13.70;59.70;;;;;;5010748;28;20640;-76
2023/05/20 02:56:33;;;;;;;2.53;1.10;;;13.70;59.70;;;;;;4994166;28;20201;-76
2023/05/20 02:59:03;;;;;;;1.60;0.90;;;13.70;60.10;;;;;;4993920;28;20269;-76
2023/05/20 03:01:29;;;;;;;3.05;1.20;;;13.70;60.50;;;;;;5011396;28;20221;-76
2023/05/20 03:03:55;;;;;;;2.83;1.30;;;13.60;60.70;;;;;;4993644;28;20205;-76
2023/05/20 03:06:20;;;;;;;1.80;1.00;;;13.60;61.20;;;;;;4994034;28;20605;-76
2023/05/20 03:08:46;;;;;;;2.10;1.00;;;13.60;61.50;;;;;;4993991;28;20215;-76
2023/05/20 03:11:13;;;;;;;2.28;1.17;;;13.60;62.20;;;;;;4977312;28;20194;-76
2023/05/20 03:13:39;;;;;;;2.20;1.10;;;13.50;62.50;;;;;;4993609;28;20248;-76
2023/05/20 03:16:05;;;;;;;1.92;1.27;;;13.50;63.60;;;;;;4994088;28;20179;-76
2023/05/20 03:18:32;;;;;;;2.37;1.20;;;13.50;64.40;;;;;;5011054;28;20672;-76
2023/05/20 03:20:58;;;;;;;1.80;0.90;;;13.50;64.70;;;;;;4973849;28;20688;-76
2023/05/20 03:23:24;;;;;;;4.30;1.30;;;13.50;64.80;;;;;;4989211;28;20203;-76
2023/05/20 03:25:51;;;;;;;2.60;1.27;;;13.50;66.20;;;;;;4958167;28;20169;-76
2023/05/20 03:28:16;;;;;;;3.50;0.93;;;13.40;66.10;;;;;;4958491;28;20273;-76
2023/05/20 03:30:42;;;;;;;5.63;1.77;;;13.40;66.50;;;;;;4989727;28;20178;-76
2023/05/20 03:33:09;;;;;;;2.63;1.00;;;13.40;67.00;;;;;;4990430;28;20253;-76
2023/05/20 03:35:35;;;;;;;3.03;1.40;;;13.40;67.50;;;;;;4990038;28;20547;-76
2023/05/20 03:38:01;;;;;;;4.30;1.20;;;13.40;68.00;;;;;;5006983;28;20183;-76
2023/05/20 03:40:27;;;;;;;2.10;1.15;;;13.40;68.50;;;;;;5006235;28;20179;-76
2023/05/20 03:42:53;;;;;;;2.33;1.40;;;13.40;69.00;;;;;;4989932;28;20174;-76
2023/05/20 03:45:20;;;;;;;2.20;1.58;;;13.40;69.60;;;;;;4990333;28;20218;-76
2023/05/20 03:48:19;;;;;;;3.10;1.15;;;13.40;70.10;;;;;;4976912;28;20182;-76
2023/05/20 03:50:45;;;;;;;2.00;1.00;;;13.30;70.00;;;;;;4973431;28;20527;-76
2023/05/20 03:53:11;;;;;;;3.57;1.10;;;13.40;71.10;;;;;;5006608;28;20211;-76
2023/05/20 03:55:40;;;;;;;2.05;1.33;;;13.30;71.70;;;;;;4989990;28;20423;-76
2023/05/20 03:58:06;;;;;;;3.00;1.30;;;13.30;72.70;;;;;;4958087;28;20171;-75
2023/05/20 04:00:32;;;;;;;5.20;1.23;;;13.30;73.10;;;;;;4973825;28;20186;-79
2023/05/20 04:02:59;;;;;;;2.60;1.07;;;13.40;73.80;;;;;;4989954;28;20170;-79
2023/05/20 04:05:25;;;;;;;2.40;1.38;;;13.40;74.40;;;;;;4961837;28;20577;-79
2023/05/20 04:07:51;;;;;;;2.38;1.25;;;13.40;74.80;;;;;;4991064;28;20175;-79
2023/05/20 04:10:19;;;;;;;2.53;1.10;;;13.40;75.50;;;;;;5006680;28;20183;-79
2023/05/20 04:12:45;;;;;;;1.85;1.20;;;13.50;76.20;;;;;;4973052;28;20210;-79
2023/05/20 04:15:12;;;;;;;2.88;1.17;;;13.40;76.60;;;;;;4975418;28;20175;-79
2023/05/20 04:17:47;;;;;;;4.45;1.45;;;13.50;77.40;;;;;;4984901;28;20232;-79
2023/05/20 04:20:13;;;;;;;2.13;1.00;;;13.50;77.70;;;;;;4977758;28;20761;-79
2023/05/20 04:22:39;;;;;;;1.87;1.20;;;13.50;78.40;;;;;;4992878;28;20194;-79
2023/05/20 04:25:06;;;;;;;3.03;1.20;;;13.60;79.20;;;;;;4993439;28;20680;-79
2023/05/20 04:27:32;;;;;;;3.92;1.30;;;13.60;79.50;;;;;;4992858;28;20602;-79
2023/05/20 04:30:01;;;;;;;3.20;1.30;;;13.70;79.80;;;;;;4995530;28;20178;-79
2023/05/20 04:32:27;;;;;;;2.72;1.25;;;13.70;80.80;;;;;;4979688;28;20297;-79
2023/05/20 04:34:54;;;;;;;2.47;1.80;;;13.80;80.90;;;;;;4996980;28;20795;-79
2023/05/20 04:37:21;;;;;;;3.50;1.73;;;13.80;81.80;;;;;;4996854;28;20178;-76
2023/05/20 04:39:48;;;;;;;2.58;1.38;;;13.90;82.60;;;;;;4996257;28;20179;-76
2023/05/20 04:42:17;;;;;;;1.90;1.00;;;14.10;83.50;;;;;;5013645;28;20680;-76
2023/05/20 04:44:44;;;;;;;3.30;1.50;;;14.10;83.40;;;;;;5013859;28;20186;-76
2023/05/20 04:47:10;;;;;;;3.08;1.30;;;14.30;83.70;;;;;;5014360;28;20159;-76
2023/05/20 04:49:37;;;;;;;2.58;1.65;;;14.30;84.20;;;;;;4996312;28;20175;-76
2023/05/20 04:52:03;;;;;;;3.40;1.80;;;14.50;85.30;;;;;;4979842;28;20252;-76
2023/05/20 04:54:29;;;;;;;2.50;1.50;;;14.70;86.40;;;;;;4996119;28;20584;-76
2023/05/20 04:56:55;;;;;;;2.87;1.10;;;14.90;87.30;;;;;;4980385;28;20584;-76
2023/05/20 04:59:24;;;;;;;2.10;1.20;;;15.10;87.30;;;;;;4996232;28;20565;-76
2023/05/20 05:01:50;;;;;;;2.90;1.40;;;15.30;87.10;;;;;;4996064;28;20325;-76
2023/05/20 05:04:15;;;;;;;2.50;1.33;;;15.50;86.60;;;;;;4996176;28;20672;-76
2023/05/20 05:06:41;;;;;;;2.27;1.40;;;15.50;86.40;;;;;;4979965;28;20189;-76
2023/05/20 05:09:07;;;;;;;2.83;1.10;;;15.60;86.40;;;;;;5014047;28;20170;-75
2023/05/20 05:11:34;;;;;;;2.43;1.47;;;15.70;86.40;;;;;;4997307;28;20789;-75
2023/05/20 05:14:00;;;;;;;4.67;1.53;;;15.70;86.50;;;;;;4980306;28;20592;-75
2023/05/20 05:16:26;;;;;;;3.63;1.60;;;15.80;86.70;;;;;;5012122;28;20676;-75
2023/05/20 05:18:52;;;;;;;3.43;1.67;;;15.90;86.70;;;;;;5014009;28;20669;-76
2023/05/20 05:21:19;;;;;;;7.77;1.50;;;16.00;87.00;;;;;;5012064;28;20194;-75
2023/05/20 05:23:47;;;;;;;5.40;1.47;;;16.00;87.90;;;;;;5012462;28;20173;-75
2023/05/20 05:26:13;;;;;;;2.13;1.43;;;16.10;87.50;;;;;;4979603;28;20600;-75
2023/05/20 05:28:42;;;;;;;2.77;1.40;;;16.20;87.80;;;;;;4980042;28;20581;-76
2023/05/20 05:31:08;;;;;;;8.13;2.07;;;16.30;88.40;;;;;;4995238;28;20605;-76
2023/05/20 05:33:33;;;;;;;3.63;1.60;;;16.40;88.50;;;;;;4995961;28;21054;-76
2023/05/20 05:36:01;;;;;;;2.97;1.90;;;16.50;88.60;;;;;;4996637;28;20625;-78
2023/05/20 05:38:27;;;;;;;2.10;1.30;;;16.70;88.80;;;;;;4995910;28;20211;-78
2023/05/20 05:40:53;;;;;;;6.20;1.70;;;16.80;88.70;;;;;;4994744;28;20620;-79
2023/05/20 05:43:20;;;;;;;2.10;1.43;;;16.90;88.70;;;;;;4979451;28;20229;-78
2023/05/20 05:45:47;;;;;;;3.00;1.50;;;17.10;88.70;;;;;;4995626;28;20989;-78
2023/05/20 05:48:12;;;;;;;4.40;1.97;;;17.20;88.90;;;;;;4979036;28;20608;-78
2023/05/20 05:50:38;;;;;;;2.70;1.40;;;17.40;89.00;;;;;;4995495;28;20186;-78
2023/05/20 05:53:04;;;;;;;2.50;1.50;;;17.60;89.20;;;;;;4978266;28;20210;-78
2023/05/20 05:55:30;;;;;;;2.47;1.57;;;17.80;89.20;;;;;;4995563;28;20178;-78
2023/05/20 05:57:56;;;;;;;3.73;1.53;;;18.00;88.90;;;;;;4999527;28;20586;-78
2023/05/20 06:00:22;;;;;;;2.57;1.43;;;18.10;88.30;;;;;;4979098;28;20634;-78
2023/05/20 06:02:48;;;;;;;2.20;1.40;;;18.20;87.90;;;;;;5010721;28;20212;-73
2023/05/20 06:05:27;;;;;;;4.70;1.50;;;18.40;88.00;;;;;;4995367;28;20182;-73
2023/05/20 06:07:53;;;;;;;2.40;1.47;;;18.70;88.70;;;;;;4994862;28;20617;-73
2023/05/20 06:10:18;;;;;;;2.10;1.40;;;18.90;89.10;;;;;;4977179;28;20265;-73
2023/05/20 06:12:44;;;;;;;2.47;1.53;;;19.10;88.20;;;;;;4994568;28;20214;-74
2023/05/20 06:15:11;;;;;;;1.80;1.20;;;19.30;87.40;;;;;;4994613;28;20178;-73
2023/05/20 06:17:37;;;;;;;2.70;1.63;;;19.40;86.70;;;;;;4994932;28;21143;-73
2023/05/20 06:20:03;;;;;;;1.93;1.20;;;19.50;85.90;;;;;;4994705;28;20577;-74
2023/05/20 06:22:29;;;;;;;1.90;1.30;;;19.60;85.00;;;;;;4978112;28;20285;-74
2023/05/20 06:24:55;;;;;;;1.97;1.07;;;19.60;84.60;;;;;;4974745;28;20686;-74
2023/05/20 06:27:21;;;;;;;1.87;1.10;;;19.70;84.30;;;;;;4959344;28;20179;-73
2023/05/20 06:29:48;;;;;;;2.50;1.47;;;19.70;83.90;;;;;;4974893;28;20637;-73
2023/05/20 06:32:14;;;;;;;3.17;1.30;;;19.70;83.70;;;;;;4979876;28;21079;-73
2023/05/20 06:34:40;;;;;;;2.57;1.37;;;19.80;83.30;;;;;;4994126;28;20198;-73
2023/05/20 06:37:06;;;;;;;1.93;1.30;;;19.90;83.50;;;;;;4994661;28;20528;-73
2023/05/20 06:39:32;;;;;;;2.60;1.17;;;19.90;83.20;;;;;;4994403;28;20577;-75
2023/05/20 06:41:58;;;;;;;4.60;1.50;;;20.00;83.10;;;;;;5011167;28;20719;-74
2023/05/20 06:44:29;;;;;;;3.17;1.30;;;20.00;82.60;;;;;;4994466;28;20185;-74
2023/05/20 06:47:00;;;;;;;2.33;1.30;;;20.10;82.50;;;;;;4978131;28;20592;-74
2023/05/20 06:49:27;;;;;;;2.97;1.00;;;20.20;83.40;;;;;;4993844;28;20624;-74
2023/05/20 06:51:53;;;;;;;1.80;0.90;;;20.20;82.20;;;;;;4989561;28;20641;-74
2023/05/20 06:54:20;;;;;;;1.87;1.30;;;20.30;82.30;;;;;;4974709;28;21204;-74
2023/05/20 06:56:47;;;;;;;3.10;1.33;;;20.30;81.80;;;;;;4974182;28;20686;-74
2023/05/20 06:59:13;;;;;;;3.30;1.10;;;20.30;81.60;;;;;;4974597;28;21166;-74
2023/05/20 07:01:39;;;;;;;4.33;1.00;;;20.40;81.50;;;;;;4973752;28;20645;-74
2023/05/20 07:04:06;;;;;;;2.23;1.23;;;20.40;81.40;;;;;;4977172;28;20269;-74
2023/05/20 07:06:32;;;;;;;3.63;1.10;;;20.50;81.80;;;;;;4993783;28;20600;-74
2023/05/20 07:08:59;;;;;;;2.53;1.47;;;20.70;81.80;;;;;;4962012;28;20620;-74
2023/05/20 07:11:26;;;;;;;2.20;1.10;;;20.80;81.60;;;;;;4993602;28;20675;-74
2023/05/20 07:13:52;;;;;;;2.47;1.43;;;21.00;81.80;;;;;;4993903;28;20597;-75
2023/05/20 07:16:18;;;;;;;2.20;1.30;;;21.20;81.00;;;;;;4993841;28;20551;-74
2023/05/20 07:18:49;;;;;;;2.17;1.10;;;21.30;80.90;;;;;;4993753;28;20668;-74
2023/05/20 07:21:15;;;;;;;2.23;1.50;;;21.60;80.30;;;;;;4977486;28;21194;-74
2023/05/20 07:23:52;;;;;;;2.97;1.40;;;21.80;80.00;;;;;;4993068;28;20596;-74
2023/05/20 07:26:18;;;;;;;1.90;1.00;;;22.20;81.20;;;;;;4994077;28;20937;-75
2023/05/20 07:28:44;;;;;;;3.20;1.10;;;22.60;80.70;;;;;;4993237;28;20182;-74
2023/05/20 07:31:10;;;;;;;1.80;1.00;;;23.00;80.20;;;;;;4993583;28;20198;-78
2023/05/20 07:33:41;;;;;;;1.70;1.00;;;23.50;80.10;;;;;;4993475;28;20637;-78
2023/05/20 07:36:07;;;;;;;3.10;0.87;;;24.00;80.20;;;;;;4993710;28;20584;-80
2023/05/20 07:38:33;;;;;;;2.80;0.90;;;24.50;78.70;;;;;;4977200;28;20671;-79
2023/05/20 07:41:03;;;;;;;2.37;1.10;;;25.10;79.20;;;;;;4977898;28;20624;-79
2023/05/20 07:43:30;;;;;;;1.93;1.10;;;25.70;77.90;;;;;;4993676;28;20589;-80
2023/05/20 07:45:56;;;;;;;2.67;1.20;;;26.10;73.50;;;;;;5009960;28;20594;-80
2023/05/20 07:48:22;;;;;;;2.13;1.10;;;26.50;71.00;;;;;;5013328;28;20597;-80
2023/05/20 07:50:48;;;;;;;1.90;1.10;;;26.70;71.50;;;;;;4993238;28;20237;-80
2023/05/20 07:53:15;;;;;;;2.53;1.00;;;26.90;69.50;;;;;;5009921;28;20664;-80
2023/05/20 07:55:42;;;;;;;1.60;0.80;;;27.10;68.70;;;;;;4993360;28;20906;-80
2023/05/20 07:58:08;;;;;;;1.87;1.13;;;27.10;67.30;;;;;;4994297;28;20585;-80
2023/05/20 08:00:34;;;;;;;3.07;1.10;;;27.10;65.60;;;;;;4989278;28;20610;-81
2023/05/20 08:03:03;;;;;;;3.33;1.07;;;27.00;65.10;;;;;;4968293;28;21106;-81
2023/05/20 08:05:40;;;;;;;1.80;1.50;;;27.00;64.20;;;;;;4997269;28;20588;-76
2023/05/20 08:08:06;;;;;;;2.63;1.30;;;26.90;63.50;;;;;;4997159;28;20616;-76
2023/05/20 08:10:43;;;;;;;2.00;1.10;;;26.80;62.80;;;;;;4996749;28;20632;-76
2023/05/20 08:13:09;;;;;;;2.73;1.30;;;26.70;62.30;;;;;;4997101;28;20640;-76
2023/05/20 08:15:37;;;;;;;2.57;1.47;;;26.50;61.40;;;;;;4997033;28;20178;-76
2023/05/20 08:18:03;;;;;;;2.50;1.80;;;26.10;59.40;;;;;;4996634;28;20584;-76
2023/05/20 08:20:29;;;;;;;2.20;1.23;;;25.80;59.50;;;;;;4996798;28;20649;-76
2023/05/20 08:22:56;;;;;;;11.23;3.87;;;25.50;59.40;;;;;;4995313;28;20190;-75
2023/05/20 08:25:22;;;;;;;3.73;1.40;;;25.30;59.40;;;;;;4980771;28;20625;-76
2023/05/20 08:27:50;;;;;;;1.57;1.00;;;25.10;59.90;;;;;;4996760;28;20573;-75
2023/05/20 08:30:16;;;;;;;1.80;1.10;;;25.00;59.80;;;;;;4980904;28;20582;-75
2023/05/20 08:32:41;;;;;;;2.63;1.17;;;24.90;59.90;;;;;;4995925;28;20645;-75
2023/05/20 08:35:08;;;;;;;3.17;1.37;;;24.90;60.20;;;;;;4980620;28;20581;-75
2023/05/20 08:37:34;;;;;;;1.90;1.00;;;24.70;59.60;;;;;;4964220;28;20178;-76
2023/05/20 08:40:00;;;;;;;2.17;1.07;;;24.70;60.70;;;;;;4996964;28;20689;-76
2023/05/20 08:42:26;;;;;;;3.20;1.10;;;24.70;61.30;;;;;;4995703;28;20217;-75
2023/05/20 08:44:56;;;;;;;3.17;1.40;;;24.90;62.80;;;;;;4996844;28;20600;-76
2023/05/20 08:47:25;;;;;;;4.03;2.50;;;25.10;63.00;;;;;;4980446;28;20589;-75
2023/05/20 08:49:50;;;;;;;2.50;1.40;;;25.40;62.20;;;;;;4996372;28;20589;-76
2023/05/20 08:52:21;;;;;;;3.77;1.57;;;25.80;61.80;;;;;;5013635;28;20659;-75
2023/05/20 08:54:48;;;;;;;1.93;1.00;;;26.10;61.00;;;;;;4996139;28;20185;-76
2023/05/20 08:57:15;;;;;;;2.07;1.13;;;26.40;61.70;;;;;;5014001;28;20748;-76
2023/05/20 08:59:43;;;;;;;2.50;1.00;;;26.80;61.10;;;;;;4995868;28;20593;-76
2023/05/20 09:02:09;;;;;;;2.00;0.93;;;27.00;60.60;;;;;;4996008;28;20613;-76
2023/05/20 09:04:36;;;;;;;3.43;1.20;;;27.20;60.00;;;;;;4995635;28;20587;-75
2023/05/20 09:07:01;;;;;;;7.73;1.30;;;27.40;59.00;;;;;;5014015;28;21139;-75
2023/05/20 09:09:28;;;;;;;2.30;1.57;;;27.40;57.50;;;;;;5013493;28;20569;-76
2023/05/20 09:11:54;;;;;;;4.00;1.20;;;27.40;57.70;;;;;;4995484;28;20264;-76
2023/05/20 09:14:20;;;;;;;2.10;1.20;;;27.50;58.30;;;;;;5013186;28;20577;-76
2023/05/20 09:16:48;;;;;;;4.97;1.43;;;27.70;58.00;;;;;;4996069;28;20186;-76
2023/05/20 09:19:13;;;;;;;6.17;1.10;;;27.80;57.80;;;;;;5013636;28;20983;-76
2023/05/20 09:21:40;;;;;;;3.20;1.10;;;28.00;57.60;;;;;;4979036;28;20637;-76
2023/05/20 09:24:06;;;;;;;1.93;1.20;;;28.10;56.40;;;;;;5013642;28;20170;-74
2023/05/20 09:26:32;;;;;;;2.07;1.13;;;28.10;55.90;;;;;;4995601;28;20642;-73
2023/05/20 09:28:59;;;;;;;3.10;1.33;;;28.10;55.70;;;;;;4995792;28;20681;-73
2023/05/20 09:31:27;;;;;;;2.33;1.00;;;28.30;56.10;;;;;;5012601;28;20199;-73
2023/05/20 09:33:54;;;;;;;1.80;1.00;;;28.40;55.80;;;;;;4995804;28;21059;-73
2023/05/20 09:36:22;;;;;;;4.43;1.30;;;28.60;55.70;;;;;;4995633;28;20615;-81
2023/05/20 09:38:51;;;;;;;2.13;1.53;;;28.80;55.30;;;;;;4979656;28;21128;-81
2023/05/20 09:41:20;;;;;;;1.80;1.00;;;29.10;55.30;;;;;;4997056;28;20670;-73
2023/05/20 09:43:47;;;;;;;2.50;1.00;;;29.50;55.50;;;;;;4995588;28;20647;-73
2023/05/20 09:46:15;;;;;;;2.67;1.00;;;29.80;55.40;;;;;;5012589;28;20573;-73
2023/05/20 09:48:42;;;;;;;3.03;1.00;;;30.10;55.50;;;;;;4996046;28;20916;-73
2023/05/20 09:51:09;;;;;;;2.50;1.33;;;30.50;55.30;;;;;;4978703;28;20628;-73
2023/05/20 09:53:35;;;;;;;3.30;1.20;;;30.90;54.80;;;;;;4994829;28;20653;-74
2023/05/20 09:56:02;;;;;;;2.20;1.20;;;31.40;54.40;;;;;;5012727;28;20585;-73
2023/05/20 09:58:29;;;;;;;1.70;1.00;;;31.70;52.80;;;;;;5012555;28;20589;-74
2023/05/20 10:00:55;;;;;;;2.13;1.50;;;32.00;52.10;;;;;;5011366;28;21019;-74
2023/05/20 10:03:23;;;;;;;2.37;1.47;;;32.40;52.20;;;;;;4994506;28;20592;-74
2023/05/20 10:06:10;;;;;;;2.23;1.20;;;32.80;50.90;;;;;;5014302;28;20702;-82
2023/05/20 10:08:57;;;;;;;3.60;1.10;;;33.30;51.10;;;;;;4994766;28;21102;-82
2023/05/20 10:11:32;;;;;;;1.60;1.00;;;33.50;47.50;;;;;;5011344;28;20599;-81
2023/05/20 10:14:26;;;;;;;1.90;1.30;;;33.60;49.20;;;;;;4994561;28;20590;-81
2023/05/20 10:17:00;;;;;;;2.20;1.33;;;33.50;48.30;;;;;;5014353;28;20651;-81
2023/05/20 10:19:32;;;;;;;2.33;1.57;;;33.20;46.90;;;;;;4996448;28;20595;-81
2023/05/20 10:22:03;;;;;;;2.10;1.10;;;33.00;46.50;;;;;;4994685;28;20709;-82
2023/05/20 10:24:40;;;;;;;1.90;1.20;;;32.50;47.00;;;;;;4990787;28;20598;-82
2023/05/20 10:27:11;;;;;;;2.00;1.00;;;32.30;46.70;;;;;;4992253;28;20603;-82
2023/05/20 10:29:54;;;;;;;3.27;1.20;;;31.90;46.80;;;;;;4992422;28;20585;-82
2023/05/20 10:32:31;;;;;;;4.37;3.13;;;31.40;46.70;;;;;;4992323;28;20630;-82
2023/05/20 10:35:07;;;;;;;3.30;1.83;;;31.00;46.40;;;;;;4991088;28;20585;-82
2023/05/20 10:37:41;;;;;;;2.47;1.30;;;30.60;46.60;;;;;;4975376;28;20670;-82
2023/05/20 10:40:15;;;;;;;3.00;1.23;;;30.10;47.20;;;;;;4958626;28;21157;-82
2023/05/20 10:42:41;;;;;;;2.00;1.10;;;29.80;47.00;;;;;;4974785;28;21402;-81
2023/05/20 10:45:08;;;;;;;5.83;2.70;;;29.30;47.00;;;;;;4975212;28;20645;-81
2023/05/20 10:47:35;;;;;;;2.43;1.40;;;29.00;47.10;;;;;;4975147;28;20938;-82
2023/05/20 10:50:03;;;;;;;2.00;1.20;;;28.60;47.10;;;;;;4984540;28;20614;-81
2023/05/20 10:52:35;;;;;;;2.93;1.70;;;28.20;47.50;;;;;;4986135;28;20648;-81
2023/05/20 10:55:01;;;;;;;2.77;1.20;;;27.90;48.00;;;;;;4999398;28;20578;-81
2023/05/20 10:57:27;;;;;;;2.67;1.57;;;27.70;48.20;;;;;;4994212;28;20584;-81
2023/05/20 10:59:54;;;;;;;2.90;1.43;;;27.50;48.60;;;;;;4994453;28;20170;-82
2023/05/20 11:02:25;;;;;;;2.37;1.20;;;27.40;48.80;;;;;;4993721;28;20705;-81
2023/05/20 11:04:57;;;;;;;2.20;1.13;;;27.20;48.90;;;;;;4994263;28;20628;-81
2023/05/20 11:07:30;;;;;;;3.17;1.63;;;26.90;49.10;;;;;;4993675;28;20596;-81
2023/05/20 11:09:57;;;;;;;2.63;1.10;;;26.80;49.50;;;;;;5011737;28;20585;-81
2023/05/20 11:12:24;;;;;;;2.47;1.40;;;26.80;50.50;;;;;;5011052;28;20656;-81
2023/05/20 11:14:51;;;;;;;2.87;1.20;;;26.80;50.30;;;;;;4994065;28;20592;-81
2023/05/20 11:17:20;;;;;;;2.73;1.47;;;26.90;50.30;;;;;;4993666;28;20581;-81
2023/05/20 11:19:47;;;;;;;3.53;1.47;;;26.90;50.30;;;;;;4993959;28;20620;-81
2023/05/20 11:22:13;;;;;;;2.00;1.60;;;26.90;50.60;;;;;;4992867;28;21008;-81
2023/05/20 11:24:38;;;;;;;2.30;1.50;;;26.90;50.70;;;;;;4977701;28;20601;-81
2023/05/20 11:27:05;;;;;;;1.97;1.20;;;27.00;50.80;;;;;;4993521;28;20170;-81
2023/05/20 11:29:32;;;;;;;6.27;1.80;;;27.10;51.10;;;;;;5011385;28;20178;-73
2023/05/20 11:32:00;;;;;;;3.23;1.87;;;27.20;51.00;;;;;;4987368;28;20745;-73
2023/05/20 11:34:36;;;;;;;2.53;1.60;;;27.30;51.10;;;;;;4982582;28;20620;-73
2023/05/20 11:37:05;;;;;;;2.00;1.20;;;27.30;51.00;;;;;;5002134;28;21176;-74
2023/05/20 11:39:32;;;;;;;2.97;1.83;;;27.30;50.90;;;;;;4980275;28;20602;-80
2023/05/20 11:41:58;;;;;;;3.03;1.50;;;27.30;50.90;;;;;;4988405;28;20687;-81
2023/05/20 11:44:24;;;;;;;3.07;1.30;;;27.40;51.10;;;;;;4993101;28;20590;-80
2023/05/20 11:46:50;;;;;;;3.53;1.97;;;27.40;51.10;;;;;;5004605;28;20224;-80
2023/05/20 11:49:16;;;;;;;2.30;1.73;;;27.40;51.20;;;;;;4993269;28;20639;-80
2023/05/20 11:51:43;;;;;;;2.07;1.57;;;27.50;51.20;;;;;;4993345;28;20605;-80
2023/05/20 11:54:09;;;;;;;3.33;1.70;;;27.60;50.90;;;;;;4977344;28;20189;-74
2023/05/20 11:56:36;;;;;;;1.77;1.27;;;27.60;50.90;;;;;;4993437;28;20593;-74
2023/05/20 11:59:06;;;;;;;3.87;2.27;;;27.60;50.90;;;;;;4977212;28;20581;-74
2023/05/20 12:01:39;;;;;;;3.57;1.20;;;27.60;50.90;;;;;;5010296;28;20597;-75
2023/05/20 12:04:06;;;;;;;3.03;2.73;;;27.60;51.00;;;;;;4993495;28;21190;-75
2023/05/20 12:06:32;;;;;;;2.87;2.13;;;27.70;51.30;;;;;;4993084;28;21032;-74
2023/05/20 12:09:06;;;;;;;3.17;1.80;;;27.70;51.40;;;;;;5011104;28;20581;-76
2023/05/20 12:11:36;;;;;;;2.97;1.70;;;27.70;51.30;;;;;;5009867;28;20666;-76
2023/05/20 12:14:02;;;;;;;2.30;1.77;;;27.80;51.40;;;;;;4993391;28;20721;-76
2023/05/20 12:16:30;;;;;;;2.80;2.20;;;27.80;51.50;;;;;;4992720;28;20727;-76
2023/05/20 12:18:56;;;;;;;2.27;1.70;;;27.90;51.90;;;;;;4993279;28;21137;-76
2023/05/20 12:21:22;;;;;;;2.47;1.47;;;28.00;52.00;;;;;;4976506;28;20628;-76
2023/05/20 12:23:47;;;;;;;3.60;1.83;;;28.10;51.70;;;;;;4992941;28;20177;-76
2023/05/20 12:26:13;;;;;;;3.63;1.53;;;28.10;51.40;;;;;;4992707;28;20233;-76
2023/05/20 12:28:39;;;;;;;2.57;1.93;;;28.00;51.10;;;;;;4993226;28;20177;-76
2023/05/20 12:31:05;;;;;;;2.80;2.20;;;27.80;50.70;;;;;;4992432;28;20194;-76
2023/05/20 12:33:30;;;;;;;3.10;2.00;;;27.70;50.60;;;;;;5010381;28;20824;-76
2023/05/20 12:35:56;;;;;;;3.00;2.20;;;27.50;50.90;;;;;;4993148;28;20611;-76
2023/05/20 12:38:22;;;;;;;2.80;1.60;;;27.40;50.90;;;;;;5010427;28;20225;-76
2023/05/20 12:40:48;;;;;;;3.43;1.80;;;27.20;51.00;;;;;;4992771;28;20581;-76
2023/05/20 12:43:13;;;;;;;2.67;1.87;;;27.00;51.30;;;;;;4992416;28;20188;-76
2023/05/20 12:45:39;;;;;;;4.03;1.60;;;26.90;51.50;;;;;;4983446;28;20182;-76
2023/05/20 12:48:06;;;;;;;2.90;1.80;;;26.90;51.70;;;;;;4992916;28;20251;-76